Time;durP1;ratioP1;P1;durP2;ratioP2;P2;SDS_P1;SDS_P2;PMS_P1;PMS_P2;Temp;Humidity;BMP_temperature;BMP_pressure;BME280_temperature;BME280_humidity;BME280_pressure;Samples;Min_cycle;Max_cycle;Signal;HPM_P1;HPM_P2
2022/05/14 00:01:33;;;;;;;15.90;14.53;;;12.60;99.90;;;;;;4955239;28;20484;-76
2022/05/14 00:04:00;;;;;;;15.40;14.07;;;12.60;99.90;;;;;;4954861;29;20840;-77
2022/05/14 00:06:30;;;;;;;17.57;16.17;;;12.50;99.90;;;;;;4954189;28;20541;-76
2022/05/14 00:09:01;;;;;;;16.57;14.87;;;12.50;99.90;;;;;;4953709;29;20453;-75
2022/05/14 00:14:18;;;;;;;14.40;13.50;;;12.50;99.90;;;;;;4899214;29;20488;-75
2022/05/14 00:16:45;;;;;;;14.10;13.20;;;12.40;99.90;;;;;;4953988;29;20448;-75
2022/05/14 00:19:11;;;;;;;15.47;14.10;;;12.40;99.90;;;;;;4953676;29;20935;-75
2022/05/14 00:21:40;;;;;;;15.10;14.07;;;12.40;99.90;;;;;;4951775;29;20864;-76
2022/05/14 00:24:07;;;;;;;15.97;14.57;;;12.30;99.90;;;;;;4951801;29;20511;-76
2022/05/14 00:26:35;;;;;;;15.30;14.30;;;12.30;99.90;;;;;;4953255;29;21077;-75
2022/05/14 00:29:02;;;;;;;16.17;15.00;;;12.30;99.90;;;;;;4953662;29;20457;-75
2022/05/14 00:31:29;;;;;;;16.50;14.67;;;12.20;99.90;;;;;;4953569;29;20460;-75
2022/05/14 00:33:56;;;;;;;15.97;14.70;;;12.20;99.90;;;;;;4953160;29;20460;-74
2022/05/14 00:36:23;;;;;;;14.80;13.97;;;12.10;99.90;;;;;;4953419;29;20551;-74
2022/05/14 00:38:52;;;;;;;15.83;14.90;;;12.10;99.90;;;;;;4953294;29;20479;-74
2022/05/14 00:41:19;;;;;;;16.80;15.43;;;12.00;99.90;;;;;;4953215;29;20567;-74
2022/05/14 00:43:52;;;;;;;16.30;15.00;;;12.00;99.90;;;;;;4953185;29;20456;-75
2022/05/14 00:46:21;;;;;;;15.40;14.40;;;11.90;99.90;;;;;;4952986;29;20947;-75
2022/05/14 00:48:50;;;;;;;16.00;14.90;;;11.90;99.90;;;;;;4953216;29;20460;-75
2022/05/14 00:51:20;;;;;;;15.50;14.37;;;11.80;99.90;;;;;;4953356;29;20463;-75
2022/05/14 00:53:51;;;;;;;16.30;15.03;;;11.90;99.90;;;;;;4952965;29;20471;-74
2022/05/14 00:56:26;;;;;;;16.33;14.87;;;11.90;99.90;;;;;;4953065;29;20453;-75
2022/05/14 00:58:59;;;;;;;17.53;15.87;;;11.90;99.90;;;;;;4952991;29;20459;-75
2022/05/14 01:01:26;;;;;;;17.13;15.67;;;11.80;99.90;;;;;;4953099;28;20472;-75
2022/05/14 01:03:53;;;;;;;15.77;14.77;;;11.80;99.90;;;;;;4952771;29;21117;-75
2022/05/14 01:06:21;;;;;;;16.00;14.90;;;11.80;99.90;;;;;;4952938;29;20452;-75
2022/05/14 01:08:49;;;;;;;17.37;16.23;;;11.70;99.90;;;;;;4953013;29;20460;-75
2022/05/14 01:11:16;;;;;;;17.23;15.77;;;11.80;99.90;;;;;;4953126;29;20460;-75
2022/05/14 01:13:45;;;;;;;16.53;15.07;;;11.80;99.90;;;;;;4952711;29;20495;-75
2022/05/14 01:16:11;;;;;;;16.67;15.47;;;11.80;99.90;;;;;;4952850;29;20464;-75
2022/05/14 01:18:38;;;;;;;18.67;17.03;;;11.80;99.90;;;;;;4954854;28;20572;-77
2022/05/14 01:21:09;;;;;;;16.60;15.43;;;11.80;99.90;;;;;;4956751;29;20452;-76
2022/05/14 01:26:31;;;;;;;15.87;14.87;;;11.70;99.90;;;;;;4956257;29;20591;-76
2022/05/14 01:29:00;;;;;;;15.53;14.73;;;11.60;99.90;;;;;;4956997;29;20451;-75
2022/05/14 01:31:28;;;;;;;15.17;14.30;;;11.60;99.90;;;;;;4956665;29;20468;-76
2022/05/14 01:33:55;;;;;;;16.00;14.83;;;11.60;99.90;;;;;;4956607;29;20547;-75
2022/05/14 01:36:21;;;;;;;16.53;15.53;;;11.60;99.90;;;;;;4956359;29;20966;-76
2022/05/14 01:38:48;;;;;;;17.00;15.90;;;11.50;99.90;;;;;;4956420;29;20456;-75
2022/05/14 01:41:15;;;;;;;17.57;16.67;;;11.50;99.90;;;;;;4956569;29;20460;-75
2022/05/14 01:43:43;;;;;;;17.63;16.53;;;11.50;99.90;;;;;;4956444;29;20456;-75
2022/05/14 01:46:10;;;;;;;17.40;16.37;;;11.50;99.90;;;;;;4956143;29;20460;-75
2022/05/14 01:48:37;;;;;;;17.13;16.00;;;11.50;99.90;;;;;;4956226;29;20543;-75
2022/05/14 01:51:04;;;;;;;17.77;16.67;;;11.50;99.90;;;;;;4956108;29;20474;-76
2022/05/14 01:53:31;;;;;;;19.20;17.87;;;11.50;99.90;;;;;;4956394;29;20453;-76
2022/05/14 01:55:57;;;;;;;18.97;17.57;;;11.50;99.90;;;;;;4956125;29;20491;-76
2022/05/14 01:58:39;;;;;;;18.07;16.97;;;11.50;99.90;;;;;;4956072;29;20448;-76
2022/05/14 02:01:15;;;;;;;17.03;15.97;;;11.40;99.90;;;;;;4956091;28;20853;-76
2022/05/14 02:03:44;;;;;;;17.70;16.27;;;11.40;99.90;;;;;;4955888;29;20484;-76
2022/05/14 02:06:11;;;;;;;18.00;16.80;;;11.40;99.90;;;;;;4955893;29;20555;-76
2022/05/14 02:08:38;;;;;;;16.50;15.50;;;11.40;99.90;;;;;;4955954;29;20892;-76
2022/05/14 02:11:07;;;;;;;16.93;15.97;;;11.30;99.90;;;;;;4955885;29;20440;-75
2022/05/14 02:13:34;;;;;;;17.27;16.17;;;11.20;99.90;;;;;;4955785;29;20461;-76
2022/05/14 02:16:01;;;;;;;16.40;15.30;;;11.20;99.90;;;;;;4955898;29;20461;-76
2022/05/14 02:18:30;;;;;;;15.70;14.67;;;11.10;99.90;;;;;;4955608;29;20600;-76
2022/05/14 02:20:57;;;;;;;17.37;16.37;;;11.10;99.90;;;;;;4955781;29;20511;-76
2022/05/14 02:23:24;;;;;;;18.53;17.40;;;11.10;99.90;;;;;;4955931;29;20456;-75
2022/05/14 02:25:51;;;;;;;17.80;16.50;;;11.10;99.90;;;;;;4955573;29;20551;-75
2022/05/14 02:28:18;;;;;;;18.20;17.00;;;11.10;99.90;;;;;;4955503;29;20488;-74
2022/05/14 02:30:45;;;;;;;19.47;17.83;;;11.10;99.90;;;;;;4955883;28;20453;-75
2022/05/14 02:33:12;;;;;;;18.00;16.60;;;11.20;99.90;;;;;;4955670;29;20467;-75
2022/05/14 02:35:41;;;;;;;17.83;16.53;;;11.20;99.90;;;;;;4955519;29;20571;-75
2022/05/14 02:38:08;;;;;;;17.77;16.53;;;11.20;99.90;;;;;;4955312;29;20459;-76
2022/05/14 02:40:35;;;;;;;18.17;16.77;;;11.20;99.90;;;;;;4955370;29;20452;-75
2022/05/14 02:43:01;;;;;;;17.50;15.70;;;11.20;99.90;;;;;;4955369;29;20452;-75
2022/05/14 02:45:28;;;;;;;16.73;15.50;;;11.20;99.90;;;;;;4955481;29;20463;-75
2022/05/14 02:47:55;;;;;;;17.07;15.40;;;11.10;99.90;;;;;;4955350;29;20495;-75
2022/05/14 02:50:22;;;;;;;16.63;15.33;;;11.00;99.90;;;;;;4955308;29;20540;-75
2022/05/14 02:52:51;;;;;;;16.67;15.37;;;10.90;99.90;;;;;;4954859;29;20489;-75
2022/05/14 02:55:17;;;;;;;16.43;15.33;;;10.90;99.90;;;;;;4955352;29;20508;-76
2022/05/14 02:57:44;;;;;;;16.60;15.60;;;10.80;99.90;;;;;;4955295;29;20459;-75
2022/05/14 03:00:14;;;;;;;16.50;15.30;;;10.80;99.90;;;;;;4955029;29;20539;-76
2022/05/14 03:02:41;;;;;;;17.03;16.03;;;10.80;99.90;;;;;;4954830;28;20544;-76
2022/05/14 03:05:08;;;;;;;16.63;15.27;;;10.70;99.90;;;;;;4955078;29;20804;-76
2022/05/14 03:07:35;;;;;;;17.67;16.27;;;10.70;99.90;;;;;;4954896;28;20830;-76
2022/05/14 03:10:04;;;;;;;16.47;15.37;;;10.70;99.90;;;;;;4955019;29;20460;-77
2022/05/14 03:12:30;;;;;;;16.40;15.30;;;10.70;99.90;;;;;;4954975;29;20452;-77
2022/05/14 03:14:57;;;;;;;15.93;14.73;;;10.60;99.90;;;;;;4954581;29;20519;-77
2022/05/14 03:17:24;;;;;;;16.13;15.13;;;10.60;99.90;;;;;;4954841;29;20818;-76
2022/05/14 03:19:52;;;;;;;17.77;16.47;;;10.60;99.90;;;;;;4954917;29;20485;-77
2022/05/14 03:22:19;;;;;;;18.63;16.93;;;10.60;99.90;;;;;;4954871;29;20464;-76
2022/05/14 03:24:46;;;;;;;18.50;17.20;;;10.70;99.90;;;;;;4954676;29;20902;-77
2022/05/14 03:27:14;;;;;;;18.40;16.90;;;10.70;99.90;;;;;;4954483;29;20484;-77
2022/05/14 03:29:41;;;;;;;18.10;16.70;;;10.70;99.90;;;;;;4954691;29;20453;-77
2022/05/14 03:32:09;;;;;;;17.90;16.47;;;10.70;99.90;;;;;;4954887;29;20484;-77
2022/05/14 03:34:37;;;;;;;17.00;16.00;;;10.60;99.90;;;;;;4954473;28;20512;-76
2022/05/14 03:37:04;;;;;;;17.30;16.10;;;10.60;99.90;;;;;;4954303;29;20487;-76
2022/05/14 03:39:31;;;;;;;19.00;17.57;;;10.60;99.90;;;;;;4954277;28;20452;-76
2022/05/14 03:41:57;;;;;;;18.97;17.67;;;10.60;99.90;;;;;;4954000;28;20460;-77
2022/05/14 03:44:25;;;;;;;19.53;17.93;;;10.60;99.90;;;;;;4954293;29;20464;-76
2022/05/14 03:46:52;;;;;;;17.17;15.87;;;10.60;99.90;;;;;;4954408;29;20469;-76
2022/05/14 03:49:19;;;;;;;17.70;16.60;;;10.60;99.90;;;;;;4954292;29;20583;-76
2022/05/14 03:51:46;;;;;;;16.03;14.90;;;10.50;99.90;;;;;;4953972;29;20577;-76
2022/05/14 03:54:12;;;;;;;16.90;15.60;;;10.50;99.90;;;;;;4954360;29;20456;-76
2022/05/14 03:56:39;;;;;;;17.27;16.07;;;10.40;99.90;;;;;;4954098;29;20460;-76
2022/05/14 03:59:06;;;;;;;17.10;16.00;;;10.40;99.90;;;;;;4954099;29;20446;-76
2022/05/14 04:01:34;;;;;;;16.93;15.60;;;10.40;99.90;;;;;;4953906;28;20484;-76
2022/05/14 04:04:01;;;;;;;16.67;15.40;;;10.40;99.90;;;;;;4953750;29;20496;-76
2022/05/14 04:06:29;;;;;;;17.30;16.30;;;10.40;99.90;;;;;;4953964;29;20821;-76
2022/05/14 04:08:56;;;;;;;16.80;15.30;;;10.40;99.90;;;;;;4953947;29;20494;-76
2022/05/14 04:11:22;;;;;;;17.00;15.80;;;10.40;99.90;;;;;;4953862;29;20519;-77
2022/05/14 04:13:50;;;;;;;17.47;16.10;;;10.40;99.90;;;;;;4953943;29;20456;-77
2022/05/14 04:16:17;;;;;;;17.97;16.67;;;10.40;99.90;;;;;;4954007;29;20968;-76
2022/05/14 04:18:45;;;;;;;16.90;15.23;;;10.40;99.90;;;;;;4954055;29;20511;-77
2022/05/14 04:21:11;;;;;;;16.47;15.37;;;10.40;99.90;;;;;;4953694;29;20507;-77
2022/05/14 04:23:38;;;;;;;17.50;16.27;;;10.40;99.90;;;;;;4953764;29;20460;-77
2022/05/14 04:26:06;;;;;;;17.87;16.70;;;10.40;99.90;;;;;;4953742;29;20456;-78
2022/05/14 04:28:32;;;;;;;16.83;15.73;;;10.50;99.90;;;;;;4953293;29;20488;-77
2022/05/14 04:30:59;;;;;;;18.47;16.80;;;10.60;99.90;;;;;;4953837;29;20459;-77
2022/05/14 04:33:27;;;;;;;16.53;15.43;;;10.60;99.90;;;;;;4953707;29;20531;-77
2022/05/14 04:35:55;;;;;;;17.43;16.23;;;10.60;99.90;;;;;;4953433;29;20456;-77
2022/05/14 04:38:22;;;;;;;17.13;16.13;;;10.80;99.90;;;;;;4953476;29;20540;-77
2022/05/14 04:40:49;;;;;;;17.07;15.70;;;11.10;99.90;;;;;;4953241;29;20456;-76
2022/05/14 04:43:16;;;;;;;16.50;15.40;;;11.60;99.90;;;;;;4953083;29;20453;-76
2022/05/14 04:45:44;;;;;;;15.90;15.00;;;11.90;99.90;;;;;;4953596;29;20453;-77
2022/05/14 04:48:11;;;;;;;15.20;14.40;;;12.10;99.90;;;;;;4953549;29;20889;-78
2022/05/14 04:50:39;;;;;;;15.47;14.37;;;12.30;99.90;;;;;;4953205;29;20515;-78
2022/05/14 04:53:08;;;;;;;15.87;14.70;;;12.60;99.90;;;;;;4952410;29;20535;-78
2022/05/14 04:55:35;;;;;;;14.20;13.37;;;12.80;99.90;;;;;;4952752;29;20475;-78
2022/05/14 04:58:01;;;;;;;15.10;14.00;;;12.90;99.90;;;;;;4951884;29;20927;-75
2022/05/14 05:00:28;;;;;;;14.73;13.43;;;13.10;99.90;;;;;;4952074;29;21032;-74
2022/05/14 05:05:56;;;;;;;15.67;14.37;;;13.40;99.90;;;;;;4893289;29;20448;-76
2022/05/14 05:08:26;;;;;;;14.33;13.53;;;13.50;99.90;;;;;;4891945;29;21138;-76
2022/05/14 05:10:53;;;;;;;14.83;14.03;;;13.70;99.90;;;;;;4920338;29;20453;-74
2022/05/14 05:13:22;;;;;;;13.73;12.83;;;13.70;99.90;;;;;;4952804;29;20515;-74
2022/05/14 05:15:49;;;;;;;14.97;13.83;;;13.70;99.90;;;;;;4952775;29;20452;-75
2022/05/14 05:18:16;;;;;;;14.27;13.50;;;13.80;99.90;;;;;;4952939;29;20452;-76
2022/05/14 05:20:45;;;;;;;14.13;13.27;;;13.90;99.90;;;;;;4953299;29;20464;-74
2022/05/14 05:23:12;;;;;;;13.93;12.97;;;14.20;99.90;;;;;;4952772;29;20457;-76
2022/05/14 05:25:41;;;;;;;13.83;12.93;;;14.20;99.90;;;;;;4952623;29;20460;-76
2022/05/14 05:28:07;;;;;;;14.93;13.93;;;14.40;99.90;;;;;;4952344;29;20488;-76
2022/05/14 05:30:34;;;;;;;14.53;13.73;;;14.60;99.90;;;;;;4952824;28;20878;-76
2022/05/14 05:33:01;;;;;;;13.40;12.30;;;14.70;99.90;;;;;;4952935;29;20464;-77
2022/05/14 05:35:28;;;;;;;13.23;12.27;;;14.60;99.90;;;;;;4952724;29;21014;-76
2022/05/14 05:37:55;;;;;;;13.43;12.50;;;14.50;99.90;;;;;;4952584;29;21002;-76
2022/05/14 05:40:21;;;;;;;13.23;12.43;;;15.40;99.90;;;;;;4952268;29;20465;-76
2022/05/14 05:42:49;;;;;;;14.73;13.30;;;14.90;99.90;;;;;;4952575;29;20543;-76
2022/05/14 05:45:18;;;;;;;13.47;12.53;;;15.00;99.90;;;;;;4952633;29;21293;-76
2022/05/14 05:47:45;;;;;;;12.73;12.03;;;15.00;99.90;;;;;;4952728;28;20548;-77
2022/05/14 05:50:13;;;;;;;12.43;11.73;;;15.30;99.90;;;;;;4952624;29;20461;-76
2022/05/14 05:52:39;;;;;;;12.30;11.37;;;15.50;99.90;;;;;;4952631;29;20479;-77
2022/05/14 05:57:49;;;;;;;13.30;12.60;;;15.60;99.90;;;;;;4920359;28;20436;-76
2022/05/14 06:00:19;;;;;;;12.80;11.73;;;15.60;99.90;;;;;;4952450;29;20452;-76
2022/05/14 06:02:46;;;;;;;14.07;13.00;;;15.80;99.90;;;;;;4952338;28;20587;-76
2022/05/14 06:05:12;;;;;;;12.70;11.80;;;15.70;99.90;;;;;;4955220;28;20876;-76
2022/05/14 06:07:39;;;;;;;12.60;11.90;;;15.90;99.90;;;;;;4955820;29;20448;-76
2022/05/14 06:10:08;;;;;;;13.73;12.37;;;16.30;99.90;;;;;;4956041;28;20551;-76
2022/05/14 06:12:38;;;;;;;12.37;11.70;;;16.50;99.90;;;;;;4956032;29;20456;-76
2022/05/14 06:15:07;;;;;;;13.70;12.93;;;16.60;99.90;;;;;;4955840;29;20464;-77
2022/05/14 06:17:34;;;;;;;12.90;12.30;;;16.70;99.90;;;;;;4955560;29;20460;-76
2022/05/14 06:20:01;;;;;;;11.53;10.93;;;16.90;99.90;;;;;;4955717;29;21252;-75
2022/05/14 06:22:30;;;;;;;12.70;11.87;;;16.80;99.90;;;;;;4955640;29;20456;-76
2022/05/14 06:24:57;;;;;;;14.27;12.97;;;17.10;99.90;;;;;;4956003;28;20452;-76
2022/05/14 06:27:24;;;;;;;12.13;11.50;;;17.30;99.90;;;;;;4955287;29;20519;-76
2022/05/14 06:29:50;;;;;;;14.63;13.80;;;17.40;99.90;;;;;;4955460;29;20543;-76
2022/05/14 06:32:18;;;;;;;13.53;12.27;;;17.80;99.90;;;;;;4955405;29;20460;-75
2022/05/14 06:34:45;;;;;;;12.73;11.93;;;17.90;99.90;;;;;;4955552;29;20452;-74
2022/05/14 06:37:13;;;;;;;13.40;12.40;;;17.90;99.90;;;;;;4955349;28;21002;-75
2022/05/14 06:39:40;;;;;;;12.60;11.70;;;18.20;99.90;;;;;;4955330;29;20456;-76
2022/05/14 06:42:08;;;;;;;12.87;11.90;;;18.40;99.90;;;;;;4955246;29;20507;-76
2022/05/14 06:44:34;;;;;;;13.60;12.80;;;18.60;99.90;;;;;;4955313;29;20811;-76
2022/05/14 06:47:01;;;;;;;13.47;12.47;;;18.60;99.90;;;;;;4955574;29;20675;-76
2022/05/14 06:49:29;;;;;;;12.53;11.77;;;19.10;99.90;;;;;;4955356;29;20480;-76
2022/05/14 06:51:59;;;;;;;13.10;12.10;;;19.20;99.90;;;;;;4955269;29;20475;-76
2022/05/14 06:54:26;;;;;;;12.43;11.63;;;19.30;99.90;;;;;;4955055;29;20456;-75
2022/05/14 06:56:52;;;;;;;13.43;12.27;;;19.60;99.90;;;;;;4955159;29;20519;-76
2022/05/14 06:59:19;;;;;;;11.90;11.10;;;19.90;99.90;;;;;;4954957;29;20998;-76
2022/05/14 07:01:48;;;;;;;12.70;12.00;;;20.30;99.90;;;;;;4954781;28;20476;-76
2022/05/14 07:07:05;;;;;;;12.47;11.60;;;20.30;98.80;;;;;;4955053;29;20439;-76
2022/05/14 07:09:33;;;;;;;13.03;12.10;;;20.70;98.30;;;;;;4954886;29;20852;-76
2022/05/14 07:12:03;;;;;;;12.73;11.97;;;20.50;98.00;;;;;;4954830;29;20456;-76
2022/05/14 07:14:31;;;;;;;12.90;12.00;;;20.80;97.60;;;;;;4951180;28;20491;-76
2022/05/14 07:16:58;;;;;;;12.63;12.03;;;21.20;97.30;;;;;;4952381;28;21087;-76
2022/05/14 07:19:25;;;;;;;11.73;11.13;;;21.10;95.90;;;;;;4954563;29;20457;-77
2022/05/14 07:21:54;;;;;;;12.20;11.50;;;20.90;96.30;;;;;;4954709;29;20889;-76
2022/05/14 07:24:23;;;;;;;12.97;11.80;;;21.20;96.00;;;;;;4954777;28;20861;-76
2022/05/14 07:26:51;;;;;;;12.43;11.83;;;21.20;96.00;;;;;;4954583;29;20465;-76
2022/05/14 07:29:20;;;;;;;13.27;12.20;;;21.60;95.50;;;;;;4954520;29;20499;-76
2022/05/14 07:31:47;;;;;;;12.00;11.10;;;22.10;94.60;;;;;;4954394;29;20496;-76
2022/05/14 07:34:14;;;;;;;12.80;11.87;;;22.70;92.90;;;;;;4952549;28;20539;-76
2022/05/14 07:36:47;;;;;;;12.73;12.13;;;22.90;92.40;;;;;;4954373;29;20499;-76
2022/05/14 07:39:14;;;;;;;12.77;12.17;;;23.60;90.70;;;;;;4954383;29;20468;-76
2022/05/14 07:41:45;;;;;;;13.40;12.43;;;24.40;89.60;;;;;;4954215;29;20984;-76
2022/05/14 07:44:16;;;;;;;12.90;12.40;;;24.90;85.10;;;;;;4954576;29;20460;-76
2022/05/14 07:46:46;;;;;;;12.07;11.47;;;25.30;81.70;;;;;;4954326;29;20547;-76
2022/05/14 07:49:15;;;;;;;12.57;11.87;;;25.70;79.60;;;;;;4954569;29;20543;-77
2022/05/14 07:51:42;;;;;;;12.93;12.20;;;26.20;76.70;;;;;;4954303;29;20456;-74
2022/05/14 07:54:09;;;;;;;11.90;11.30;;;27.50;72.10;;;;;;4954187;29;20452;-76
2022/05/14 07:56:38;;;;;;;13.93;12.90;;;27.80;69.10;;;;;;4953861;29;20460;-76
2022/05/14 07:59:06;;;;;;;12.07;11.37;;;28.00;67.40;;;;;;4953968;29;20552;-76
2022/05/14 08:01:33;;;;;;;12.43;11.73;;;27.80;66.40;;;;;;4953623;29;21013;-77
2022/05/14 08:03:59;;;;;;;12.77;12.23;;;28.30;66.30;;;;;;4953656;28;20484;-76
2022/05/14 08:06:26;;;;;;;12.70;11.90;;;28.90;62.80;;;;;;4953861;29;20449;-76
2022/05/14 08:08:54;;;;;;;12.20;11.60;;;28.90;61.10;;;;;;4953583;29;20559;-75
2022/05/14 08:11:20;;;;;;;11.90;11.50;;;29.70;59.20;;;;;;4953738;29;20559;-74
2022/05/14 08:13:47;;;;;;;13.57;12.53;;;29.50;58.00;;;;;;4953679;29;20507;-74
2022/05/14 08:16:15;;;;;;;13.20;12.43;;;29.90;56.50;;;;;;4953741;29;20488;-75
2022/05/14 08:18:42;;;;;;;12.53;12.00;;;30.20;54.80;;;;;;4953594;29;20452;-75
2022/05/14 08:26:37;;;;;;;12.27;11.73;;;30.60;52.10;;;;;;4953364;28;20448;-76
2022/05/14 08:29:04;;;;;;;13.03;12.43;;;30.60;52.20;;;;;;4953166;29;20488;-75
2022/05/14 08:31:32;;;;;;;13.13;12.53;;;31.00;50.30;;;;;;4953602;29;20452;-75
2022/05/14 08:33:59;;;;;;;13.00;12.40;;;30.90;50.20;;;;;;4953352;29;20463;-74
2022/05/14 08:36:26;;;;;;;12.20;11.60;;;30.00;51.40;;;;;;4953438;29;20456;-74
2022/05/14 08:38:54;;;;;;;12.63;12.13;;;30.10;51.30;;;;;;4953196;29;20966;-75
2022/05/14 08:41:21;;;;;;;13.13;12.27;;;29.60;51.60;;;;;;4953116;28;20536;-76
2022/05/14 08:43:52;;;;;;;12.00;11.50;;;28.50;53.70;;;;;;4952480;29;20457;-76
2022/05/14 08:46:21;;;;;;;12.40;11.90;;;27.80;55.20;;;;;;4951865;28;20469;-76
2022/05/14 08:48:52;;;;;;;12.50;12.00;;;28.40;54.90;;;;;;4951935;28;20511;-76
2022/05/14 08:51:23;;;;;;;13.13;12.43;;;28.20;53.80;;;;;;4952019;29;20501;-76
2022/05/14 08:53:51;;;;;;;12.63;12.13;;;28.30;53.90;;;;;;4951855;29;20927;-76
2022/05/14 08:56:27;;;;;;;12.00;11.60;;;29.00;53.60;;;;;;4951504;28;20990;-76
2022/05/14 08:59:07;;;;;;;13.00;12.30;;;29.20;52.20;;;;;;4951851;28;20459;-77
2022/05/14 09:01:36;;;;;;;12.93;12.33;;;29.30;52.30;;;;;;4950945;28;20531;-76
2022/05/14 09:04:04;;;;;;;13.53;12.43;;;29.60;53.00;;;;;;4949362;28;20481;-76
2022/05/14 09:06:31;;;;;;;12.47;11.93;;;30.20;51.60;;;;;;4952473;28;20452;-76
2022/05/14 09:08:58;;;;;;;13.10;12.40;;;30.70;50.60;;;;;;4952118;29;20547;-78
2022/05/14 09:11:27;;;;;;;12.53;11.83;;;31.70;49.10;;;;;;4952401;29;20449;-78
2022/05/14 09:13:56;;;;;;;14.20;13.60;;;32.20;48.80;;;;;;4952793;28;21251;-78
2022/05/14 09:16:27;;;;;;;14.30;13.27;;;32.70;47.70;;;;;;4949687;29;20499;-78
2022/05/14 09:18:54;;;;;;;13.57;12.80;;;32.80;47.90;;;;;;4952117;28;21093;-77
2022/05/14 09:21:24;;;;;;;12.90;12.20;;;33.30;46.80;;;;;;4952011;29;20536;-77
2022/05/14 09:23:55;;;;;;;13.73;12.97;;;33.50;46.00;;;;;;4951904;28;20444;-76
2022/05/14 09:26:27;;;;;;;13.17;12.60;;;33.00;45.20;;;;;;4949292;29;20536;-78
2022/05/14 09:28:57;;;;;;;14.07;13.37;;;31.60;46.70;;;;;;4951774;28;20452;-76
2022/05/14 09:31:27;;;;;;;13.53;12.73;;;32.40;46.00;;;;;;4949554;29;20452;-75
2022/05/14 09:34:03;;;;;;;13.17;12.53;;;31.90;46.00;;;;;;4951562;28;20472;-76
2022/05/14 09:36:32;;;;;;;12.77;12.17;;;32.40;45.50;;;;;;4950456;29;20838;-75
2022/05/14 09:39:03;;;;;;;13.17;12.57;;;32.80;46.10;;;;;;4952240;28;20441;-75
2022/05/14 09:41:30;;;;;;;13.00;12.30;;;31.60;46.60;;;;;;4955355;29;20444;-76
2022/05/14 09:43:59;;;;;;;12.80;12.10;;;31.40;47.40;;;;;;4955573;28;20460;-76
2022/05/14 09:46:29;;;;;;;13.33;12.73;;;32.10;46.40;;;;;;4955166;29;20523;-76
2022/05/14 09:49:04;;;;;;;13.10;12.20;;;32.40;45.70;;;;;;4954863;29;20480;-76
2022/05/14 09:51:36;;;;;;;13.63;12.93;;;32.00;45.60;;;;;;4954254;29;20499;-76
2022/05/14 09:54:14;;;;;;;12.53;12.03;;;31.40;46.20;;;;;;4952946;29;20452;-76
2022/05/14 09:57:20;;;;;;;13.13;12.43;;;31.00;48.70;;;;;;4954984;28;20467;-76
2022/05/14 10:00:07;;;;;;;13.13;12.43;;;31.20;46.80;;;;;;4944723;28;20457;-76
2022/05/14 10:02:52;;;;;;;14.03;13.33;;;30.80;47.30;;;;;;4953782;28;20479;-76
2022/05/14 10:05:34;;;;;;;13.87;13.07;;;30.80;47.70;;;;;;4954473;29;20440;-77
2022/05/14 10:08:14;;;;;;;13.90;13.30;;;31.60;47.30;;;;;;4955141;29;20444;-75
2022/05/14 10:10:53;;;;;;;13.57;12.87;;;32.60;45.60;;;;;;4954798;29;21036;-76
2022/05/14 10:13:28;;;;;;;12.43;11.93;;;32.80;45.60;;;;;;4955459;29;20495;-76
2022/05/14 10:16:03;;;;;;;13.70;13.10;;;33.40;44.80;;;;;;4956067;28;20821;-76
2022/05/14 10:18:50;;;;;;;13.53;12.83;;;33.70;44.00;;;;;;4955707;28;20456;-76
2022/05/14 10:21:28;;;;;;;12.90;12.20;;;32.90;44.20;;;;;;4955554;28;20433;-76
2022/05/14 10:27:14;;;;;;;13.53;12.67;;;31.00;46.90;;;;;;4955025;29;20552;-76
2022/05/14 10:29:54;;;;;;;13.53;12.70;;;30.60;47.60;;;;;;4955086;28;21013;-76
2022/05/14 10:32:22;;;;;;;13.13;12.43;;;30.60;48.00;;;;;;4954762;28;20445;-77
2022/05/14 10:34:55;;;;;;;13.00;12.47;;;31.10;46.90;;;;;;4954973;28;20456;-77
2022/05/14 10:37:30;;;;;;;13.50;12.70;;;30.90;47.10;;;;;;4955441;28;20672;-77
2022/05/14 10:40:05;;;;;;;14.57;13.67;;;31.30;46.40;;;;;;4955175;28;20452;-76
2022/05/14 10:42:44;;;;;;;13.13;12.53;;;31.70;46.70;;;;;;4955286;28;20456;-77
2022/05/14 10:45:15;;;;;;;13.50;12.90;;;31.10;46.30;;;;;;4955168;28;20447;-77
2022/05/14 10:47:46;;;;;;;14.10;13.20;;;30.60;46.90;;;;;;4954997;28;20463;-77
2022/05/14 10:50:19;;;;;;;12.90;12.40;;;30.90;46.50;;;;;;4953532;28;20508;-77
2022/05/14 10:52:47;;;;;;;13.27;12.70;;;30.80;47.20;;;;;;4954635;28;20460;-77
2022/05/14 10:55:19;;;;;;;13.77;13.07;;;30.30;48.20;;;;;;4954571;28;20473;-77
2022/05/14 10:57:49;;;;;;;13.27;12.50;;;29.90;47.60;;;;;;4954596;28;20471;-78
2022/05/14 11:00:32;;;;;;;12.40;11.90;;;29.80;48.70;;;;;;4954562;28;20448;-76
2022/05/14 11:03:03;;;;;;;14.20;13.30;;;29.70;48.80;;;;;;4954502;28;20476;-78
2022/05/14 11:05:32;;;;;;;13.20;12.50;;;29.80;48.20;;;;;;4954352;28;20503;-77
2022/05/14 11:08:11;;;;;;;12.67;12.07;;;30.40;47.50;;;;;;4954723;28;20460;-78
2022/05/14 11:10:39;;;;;;;13.20;12.40;;;30.50;47.20;;;;;;4953986;28;20491;-78
2022/05/14 11:13:16;;;;;;;13.53;12.93;;;30.20;47.70;;;;;;4954182;28;20456;-77
2022/05/14 11:15:44;;;;;;;13.10;12.60;;;29.70;48.00;;;;;;4954367;28;20511;-77
2022/05/14 11:18:13;;;;;;;13.17;12.57;;;29.60;48.60;;;;;;4954118;28;20516;-77
2022/05/14 11:20:51;;;;;;;13.80;12.70;;;29.20;48.30;;;;;;4953677;28;20860;-77
2022/05/14 11:23:19;;;;;;;13.70;12.80;;;29.00;49.00;;;;;;4954050;28;20865;-77
2022/05/14 11:25:48;;;;;;;12.90;12.27;;;29.10;49.30;;;;;;4953900;28;20452;-76
2022/05/14 11:28:27;;;;;;;13.67;12.97;;;28.90;49.30;;;;;;4953860;28;20457;-76
2022/05/14 11:30:56;;;;;;;12.97;12.30;;;28.90;49.20;;;;;;4953842;28;21017;-77
2022/05/14 11:33:28;;;;;;;12.37;11.87;;;29.70;48.70;;;;;;4953755;28;20460;-76
2022/05/14 11:35:58;;;;;;;13.63;12.83;;;30.50;47.20;;;;;;4953925;28;20507;-77
2022/05/14 11:38:33;;;;;;;13.10;12.50;;;30.10;47.70;;;;;;4953786;28;20459;-77
2022/05/14 11:41:03;;;;;;;13.20;12.23;;;30.60;47.30;;;;;;4953933;28;20456;-77
2022/05/14 11:43:33;;;;;;;12.80;12.10;;;30.70;47.30;;;;;;4953833;28;20465;-77
2022/05/14 11:46:17;;;;;;;13.47;12.60;;;30.90;46.40;;;;;;4954056;28;20509;-77
2022/05/14 11:48:47;;;;;;;12.80;12.30;;;31.70;45.40;;;;;;4953754;28;20939;-78
2022/05/14 11:51:24;;;;;;;12.87;12.07;;;32.40;45.80;;;;;;4953374;28;21010;-77
2022/05/14 11:53:57;;;;;;;12.63;12.03;;;32.60;43.60;;;;;;4953586;28;20452;-78
2022/05/14 11:56:33;;;;;;;13.13;12.43;;;32.60;43.40;;;;;;4953490;28;21017;-76
2022/05/14 11:59:06;;;;;;;12.50;12.10;;;32.10;43.70;;;;;;4953428;28;20491;-77
2022/05/14 12:01:37;;;;;;;12.40;11.90;;;32.20;43.60;;;;;;4933885;29;20889;-77
2022/05/14 12:04:12;;;;;;;13.23;12.63;;;31.60;44.50;;;;;;4933808;29;20988;-81
2022/05/14 12:07:39;;;;;;;13.03;12.23;;;30.90;44.80;;;;;;4934308;29;20437;-76
2022/05/14 12:10:18;;;;;;;13.37;12.63;;;31.40;44.50;;;;;;4893799;29;20491;-78
2022/05/14 12:12:54;;;;;;;12.63;11.83;;;32.20;44.40;;;;;;4893645;29;20510;-77
2022/05/14 12:15:24;;;;;;;13.50;12.70;;;32.30;42.90;;;;;;4924529;29;20833;-78
2022/05/14 12:17:53;;;;;;;12.87;12.17;;;32.00;43.00;;;;;;4933670;29;20465;-77
2022/05/14 12:20:22;;;;;;;13.07;12.50;;;31.30;43.70;;;;;;4933878;29;20512;-78
2022/05/14 12:26:22;;;;;;;12.83;12.03;;;30.80;44.50;;;;;;4909088;29;20796;-79
2022/05/14 12:28:51;;;;;;;12.33;11.73;;;31.10;44.70;;;;;;4933893;29;20457;-79
2022/05/14 12:34:10;;;;;;;13.20;12.50;;;30.40;44.60;;;;;;4933915;29;20512;-79
2022/05/14 12:36:41;;;;;;;12.30;11.60;;;30.30;44.60;;;;;;4933903;29;20952;-78
2022/05/14 12:39:13;;;;;;;12.10;11.50;;;31.00;44.50;;;;;;4934218;29;20458;-77
2022/05/14 12:41:41;;;;;;;12.30;11.90;;;31.50;44.10;;;;;;4934181;29;20500;-77
2022/05/14 12:44:14;;;;;;;12.80;12.20;;;32.30;42.00;;;;;;4933575;29;20485;-77
2022/05/14 12:46:43;;;;;;;12.90;12.30;;;32.10;40.20;;;;;;4934458;29;20448;-78
2022/05/14 12:49:17;;;;;;;12.30;11.40;;;32.00;42.00;;;;;;4934014;29;20453;-78
2022/05/14 12:51:50;;;;;;;12.40;11.70;;;31.90;42.20;;;;;;4933876;29;20494;-77
2022/05/14 12:54:23;;;;;;;10.70;10.30;;;31.50;41.50;;;;;;4933760;29;20484;-77
2022/05/14 12:56:52;;;;;;;12.80;12.30;;;31.30;42.90;;;;;;4933486;29;20481;-78
2022/05/14 12:59:20;;;;;;;11.90;11.30;;;31.10;41.90;;;;;;4933736;29;20450;-76
2022/05/14 13:01:49;;;;;;;11.67;11.20;;;30.90;41.80;;;;;;4933629;29;20496;-77
2022/05/14 13:04:18;;;;;;;11.70;11.10;;;30.70;42.40;;;;;;4933374;29;20521;-78
2022/05/14 13:06:46;;;;;;;12.53;11.87;;;30.90;43.00;;;;;;4933460;29;20461;-77
2022/05/14 13:09:19;;;;;;;12.50;12.00;;;31.30;41.80;;;;;;4933610;29;20501;-78